sensor_id;sensor_type;location;lat;lon;timestamp;temperature;humidity
67901;DHT22;54700;51.796;10.956;2023-10-19T00:02:05;6.70;99.90
67901;DHT22;54700;51.796;10.956;2023-10-19T00:04:33;6.70;99.90
67901;DHT22;54700;51.796;10.956;2023-10-19T00:07:07;6.70;99.90
67901;DHT22;54700;51.796;10.956;2023-10-19T00:09:41;6.70;99.90
67901;DHT22;54700;51.796;10.956;2023-10-19T00:12:13;6.70;99.90
67901;DHT22;54700;51.796;10.956;2023-10-19T00:14:41;6.70;99.90
67901;DHT22;54700;51.796;10.956;2023-10-19T00:17:08;6.70;99.90
67901;DHT22;54700;51.796;10.956;2023-10-19T00:19:36;6.70;99.90
67901;DHT22;54700;51.796;10.956;2023-10-19T00:22:07;6.70;99.90
67901;DHT22;54700;51.796;10.956;2023-10-19T00:24:39;6.70;99.90
67901;DHT22;54700;51.796;10.956;2023-10-19T00:27:07;6.70;99.90
67901;DHT22;54700;51.796;10.956;2023-10-19T00:29:41;6.70;99.90
67901;DHT22;54700;51.796;10.956;2023-10-19T00:32:13;6.70;99.90
67901;DHT22;54700;51.796;10.956;2023-10-19T00:34:40;6.70;99.90
67901;DHT22;54700;51.796;10.956;2023-10-19T00:37:10;6.60;99.90
67901;DHT22;54700;51.796;10.956;2023-10-19T00:39:42;6.60;99.90
67901;DHT22;54700;51.796;10.956;2023-10-19T00:42:13;6.60;99.90
67901;DHT22;54700;51.796;10.956;2023-10-19T00:44:47;6.60;99.90
67901;DHT22;54700;51.796;10.956;2023-10-19T00:47:15;6.60;99.90
67901;DHT22;54700;51.796;10.956;2023-10-19T00:49:47;6.50;99.90
67901;DHT22;54700;51.796;10.956;2023-10-19T00:52:16;6.50;99.90
67901;DHT22;54700;51.796;10.956;2023-10-19T00:54:45;6.50;99.90
67901;DHT22;54700;51.796;10.956;2023-10-19T00:57:17;6.40;99.90
67901;DHT22;54700;51.796;10.956;2023-10-19T00:59:57;6.40;99.90
67901;DHT22;54700;51.796;10.956;2023-10-19T01:02:36;6.40;99.90
67901;DHT22;54700;51.796;10.956;2023-10-19T01:05:09;6.50;99.90
67901;DHT22;54700;51.796;10.956;2023-10-19T01:07:42;6.50;99.90
67901;DHT22;54700;51.796;10.956;2023-10-19T01:10:10;6.50;99.90
67901;DHT22;54700;51.796;10.956;2023-10-19T01:12:41;6.50;99.90
67901;DHT22;54700;51.796;10.956;2023-10-19T01:15:09;6.50;99.90
67901;DHT22;54700;51.796;10.956;2023-10-19T01:17:42;6.50;99.90
67901;DHT22;54700;51.796;10.956;2023-10-19T01:20:10;6.50;99.90
67901;DHT22;54700;51.796;10.956;2023-10-19T01:22:50;6.60;99.90
67901;DHT22;54700;51.796;10.956;2023-10-19T01:25:31;6.60;99.90
67901;DHT22;54700;51.796;10.956;2023-10-19T01:28:06;6.60;99.90
67901;DHT22;54700;51.796;10.956;2023-10-19T01:30:34;6.60;99.90
67901;DHT22;54700;51.796;10.956;2023-10-19T01:33:01;6.60;99.90
67901;DHT22;54700;51.796;10.956;2023-10-19T01:35:30;6.60;99.90
67901;DHT22;54700;51.796;10.956;2023-10-19T01:38:19;6.50;99.90
67901;DHT22;54700;51.796;10.956;2023-10-19T01:40:45;6.60;99.90
67901;DHT22;54700;51.796;10.956;2023-10-19T01:43:13;6.50;99.90
67901;DHT22;54700;51.796;10.956;2023-10-19T01:45:46;6.50;99.90
67901;DHT22;54700;51.796;10.956;2023-10-19T01:48:19;6.50;99.90
67901;DHT22;54700;51.796;10.956;2023-10-19T01:50:48;6.50;99.90
67901;DHT22;54700;51.796;10.956;2023-10-19T01:53:16;6.50;99.90
67901;DHT22;54700;51.796;10.956;2023-10-19T01:55:43;6.50;99.90
67901;DHT22;54700;51.796;10.956;2023-10-19T01:58:13;6.50;99.90
67901;DHT22;54700;51.796;10.956;2023-10-19T02:00:39;6.40;99.90
67901;DHT22;54700;51.796;10.956;2023-10-19T02:03:08;6.40;99.90
67901;DHT22;54700;51.796;10.956;2023-10-19T02:05:34;6.40;99.90
67901;DHT22;54700;51.796;10.956;2023-10-19T02:08:09;6.30;99.90
67901;DHT22;54700;51.796;10.956;2023-10-19T02:10:35;6.30;99.90
67901;DHT22;54700;51.796;10.956;2023-10-19T02:13:04;6.40;99.90
67901;DHT22;54700;51.796;10.956;2023-10-19T02:15:32;6.40;99.90
67901;DHT22;54700;51.796;10.956;2023-10-19T02:18:01;6.40;99.90
67901;DHT22;54700;51.796;10.956;2023-10-19T02:20:28;6.40;99.90
67901;DHT22;54700;51.796;10.956;2023-10-19T02:22:56;6.40;99.90
67901;DHT22;54700;51.796;10.956;2023-10-19T02:25:23;6.40;99.90
67901;DHT22;54700;51.796;10.956;2023-10-19T02:27:53;6.40;99.90
67901;DHT22;54700;51.796;10.956;2023-10-19T02:30:21;6.40;99.90
67901;DHT22;54700;51.796;10.956;2023-10-19T02:32:50;6.30;99.90
67901;DHT22;54700;51.796;10.956;2023-10-19T02:35:16;6.30;99.90
67901;DHT22;54700;51.796;10.956;2023-10-19T02:37:44;6.20;99.90
67901;DHT22;54700;51.796;10.956;2023-10-19T02:40:10;6.30;99.90
67901;DHT22;54700;51.796;10.956;2023-10-19T02:42:45;6.20;99.90
67901;DHT22;54700;51.796;10.956;2023-10-19T02:45:13;6.30;99.90
67901;DHT22;54700;51.796;10.956;2023-10-19T02:47:44;6.20;99.90
67901;DHT22;54700;51.796;10.956;2023-10-19T02:50:11;6.30;99.90
67901;DHT22;54700;51.796;10.956;2023-10-19T02:52:42;6.30;99.90
67901;DHT22;54700;51.796;10.956;2023-10-19T02:55:08;6.30;99.90
67901;DHT22;54700;51.796;10.956;2023-10-19T02:57:36;6.30;99.90
67901;DHT22;54700;51.796;10.956;2023-10-19T03:00:04;6.30;99.90
67901;DHT22;54700;51.796;10.956;2023-10-19T03:02:38;6.40;99.90
67901;DHT22;54700;51.796;10.956;2023-10-19T03:05:07;6.30;99.90
67901;DHT22;54700;51.796;10.956;2023-10-19T03:07:39;6.40;99.90
67901;DHT22;54700;51.796;10.956;2023-10-19T03:10:09;6.30;99.90
67901;DHT22;54700;51.796;10.956;2023-10-19T03:12:48;6.30;99.90
67901;DHT22;54700;51.796;10.956;2023-10-19T03:15:15;6.30;99.90
67901;DHT22;54700;51.796;10.956;2023-10-19T03:17:43;6.30;99.90
67901;DHT22;54700;51.796;10.956;2023-10-19T03:20:10;6.30;99.90
67901;DHT22;54700;51.796;10.956;2023-10-19T03:22:37;6.30;99.90
67901;DHT22;54700;51.796;10.956;2023-10-19T03:25:04;6.30;99.90
67901;DHT22;54700;51.796;10.956;2023-10-19T03:27:59;6.30;99.90
67901;DHT22;54700;51.796;10.956;2023-10-19T03:30:32;6.30;99.90
67901;DHT22;54700;51.796;10.956;2023-10-19T03:33:04;6.30;99.90
67901;DHT22;54700;51.796;10.956;2023-10-19T03:35:33;6.30;99.90
67901;DHT22;54700;51.796;10.956;2023-10-19T03:38:01;6.20;99.90
67901;DHT22;54700;51.796;10.956;2023-10-19T03:40:33;6.30;99.90
67901;DHT22;54700;51.796;10.956;2023-10-19T03:43:04;6.20;99.90
67901;DHT22;54700;51.796;10.956;2023-10-19T03:45:42;6.20;99.90
67901;DHT22;54700;51.796;10.956;2023-10-19T03:48:16;6.20;99.90
67901;DHT22;54700;51.796;10.956;2023-10-19T03:50:51;6.20;99.90
67901;DHT22;54700;51.796;10.956;2023-10-19T03:53:18;6.20;99.90
67901;DHT22;54700;51.796;10.956;2023-10-19T03:55:47;6.20;99.90
67901;DHT22;54700;51.796;10.956;2023-10-19T03:58:15;6.20;99.90
67901;DHT22;54700;51.796;10.956;2023-10-19T04:00:45;6.20;99.90
67901;DHT22;54700;51.796;10.956;2023-10-19T04:03:14;6.20;99.90
67901;DHT22;54700;51.796;10.956;2023-10-19T04:05:43;6.20;99.90
67901;DHT22;54700;51.796;10.956;2023-10-19T04:08:13;6.20;99.90
67901;DHT22;54700;51.796;10.956;2023-10-19T04:10:45;6.20;99.90
67901;DHT22;54700;51.796;10.956;2023-10-19T04:13:33;6.20;99.90
67901;DHT22;54700;51.796;10.956;2023-10-19T04:16:02;6.20;99.90
67901;DHT22;54700;51.796;10.956;2023-10-19T04:18:29;6.20;99.90
67901;DHT22;54700;51.796;10.956;2023-10-19T04:20:56;6.30;99.90
67901;DHT22;54700;51.796;10.956;2023-10-19T04:23:25;6.30;99.90
67901;DHT22;54700;51.796;10.956;2023-10-19T04:25:53;6.20;99.90
67901;DHT22;54700;51.796;10.956;2023-10-19T04:28:23;6.20;99.90
67901;DHT22;54700;51.796;10.956;2023-10-19T04:31:03;6.20;99.90
67901;DHT22;54700;51.796;10.956;2023-10-19T04:33:32;6.20;99.90
67901;DHT22;54700;51.796;10.956;2023-10-19T04:36:00;6.20;99.90
67901;DHT22;54700;51.796;10.956;2023-10-19T04:38:29;6.30;99.90
67901;DHT22;54700;51.796;10.956;2023-10-19T04:41:05;6.30;99.90
67901;DHT22;54700;51.796;10.956;2023-10-19T04:43:36;6.30;99.90
67901;DHT22;54700;51.796;10.956;2023-10-19T04:46:05;6.20;99.90
67901;DHT22;54700;51.796;10.956;2023-10-19T04:48:37;6.20;99.90
67901;DHT22;54700;51.796;10.956;2023-10-19T04:51:06;6.20;99.90
67901;DHT22;54700;51.796;10.956;2023-10-19T04:53:36;6.20;99.90
67901;DHT22;54700;51.796;10.956;2023-10-19T04:56:05;6.20;99.90
67901;DHT22;54700;51.796;10.956;2023-10-19T04:58:34;6.20;99.90
67901;DHT22;54700;51.796;10.956;2023-10-19T05:01:02;6.20;99.90
67901;DHT22;54700;51.796;10.956;2023-10-19T05:03:32;6.20;99.90
67901;DHT22;54700;51.796;10.956;2023-10-19T05:05:59;6.20;99.90
67901;DHT22;54700;51.796;10.956;2023-10-19T05:08:26;6.20;99.90
67901;DHT22;54700;51.796;10.956;2023-10-19T05:10:55;6.20;99.90
67901;DHT22;54700;51.796;10.956;2023-10-19T05:13:24;6.20;99.90
67901;DHT22;54700;51.796;10.956;2023-10-19T05:15:55;6.20;99.90
67901;DHT22;54700;51.796;10.956;2023-10-19T05:18:24;6.30;99.90
67901;DHT22;54700;51.796;10.956;2023-10-19T05:20:52;6.20;99.90
67901;DHT22;54700;51.796;10.956;2023-10-19T05:23:22;6.20;99.90
67901;DHT22;54700;51.796;10.956;2023-10-19T05:25:50;6.20;99.90
67901;DHT22;54700;51.796;10.956;2023-10-19T05:28:21;6.20;99.90
67901;DHT22;54700;51.796;10.956;2023-10-19T05:30:48;6.20;99.90
67901;DHT22;54700;51.796;10.956;2023-10-19T05:33:15;6.20;99.90
67901;DHT22;54700;51.796;10.956;2023-10-19T05:35:46;6.20;99.90
67901;DHT22;54700;51.796;10.956;2023-10-19T05:38:13;6.20;99.90
67901;DHT22;54700;51.796;10.956;2023-10-19T05:40:40;6.20;99.90
67901;DHT22;54700;51.796;10.956;2023-10-19T05:43:08;6.20;99.90
67901;DHT22;54700;51.796;10.956;2023-10-19T05:45:37;6.20;99.90
67901;DHT22;54700;51.796;10.956;2023-10-19T05:48:04;6.30;99.90
67901;DHT22;54700;51.796;10.956;2023-10-19T05:50:32;6.30;99.90
67901;DHT22;54700;51.796;10.956;2023-10-19T05:53:01;6.20;99.90
67901;DHT22;54700;51.796;10.956;2023-10-19T05:55:28;6.30;99.90
67901;DHT22;54700;51.796;10.956;2023-10-19T05:57:56;6.30;99.90
67901;DHT22;54700;51.796;10.956;2023-10-19T06:00:23;6.30;99.90
67901;DHT22;54700;51.796;10.956;2023-10-19T06:02:53;6.30;99.90
67901;DHT22;54700;51.796;10.956;2023-10-19T06:05:19;6.40;99.90
67901;DHT22;54700;51.796;10.956;2023-10-19T06:07:47;6.40;99.90
67901;DHT22;54700;51.796;10.956;2023-10-19T06:10:18;6.40;99.90
67901;DHT22;54700;51.796;10.956;2023-10-19T06:12:48;6.40;99.90
67901;DHT22;54700;51.796;10.956;2023-10-19T06:15:16;6.40;99.90
67901;DHT22;54700;51.796;10.956;2023-10-19T06:17:46;6.30;99.90
67901;DHT22;54700;51.796;10.956;2023-10-19T06:20:15;6.30;99.90
67901;DHT22;54700;51.796;10.956;2023-10-19T06:22:50;6.30;99.90
67901;DHT22;54700;51.796;10.956;2023-10-19T06:25:19;6.30;99.90
67901;DHT22;54700;51.796;10.956;2023-10-19T06:27:46;6.30;99.90
67901;DHT22;54700;51.796;10.956;2023-10-19T06:30:15;6.40;99.90
67901;DHT22;54700;51.796;10.956;2023-10-19T06:32:45;6.40;99.90
67901;DHT22;54700;51.796;10.956;2023-10-19T06:35:14;6.40;99.90
67901;DHT22;54700;51.796;10.956;2023-10-19T06:37:43;6.40;99.90
67901;DHT22;54700;51.796;10.956;2023-10-19T06:40:11;6.50;99.90
67901;DHT22;54700;51.796;10.956;2023-10-19T06:42:42;6.50;99.90
67901;DHT22;54700;51.796;10.956;2023-10-19T06:45:10;6.40;99.90
67901;DHT22;54700;51.796;10.956;2023-10-19T06:47:40;6.40;99.90
67901;DHT22;54700;51.796;10.956;2023-10-19T06:50:08;6.40;99.90
67901;DHT22;54700;51.796;10.956;2023-10-19T06:52:38;6.40;99.90
67901;DHT22;54700;51.796;10.956;2023-10-19T06:55:06;6.40;99.90
67901;DHT22;54700;51.796;10.956;2023-10-19T06:57:39;6.40;99.90
67901;DHT22;54700;51.796;10.956;2023-10-19T07:00:09;6.40;99.90
67901;DHT22;54700;51.796;10.956;2023-10-19T07:02:40;6.40;99.90
67901;DHT22;54700;51.796;10.956;2023-10-19T07:05:08;6.40;99.90
67901;DHT22;54700;51.796;10.956;2023-10-19T07:07:39;6.40;99.90
67901;DHT22;54700;51.796;10.956;2023-10-19T07:10:07;6.50;99.90
67901;DHT22;54700;51.796;10.956;2023-10-19T07:12:37;6.50;99.90
67901;DHT22;54700;51.796;10.956;2023-10-19T07:15:07;6.50;99.90
67901;DHT22;54700;51.796;10.956;2023-10-19T07:17:39;6.50;99.90
67901;DHT22;54700;51.796;10.956;2023-10-19T07:20:08;6.50;99.90
67901;DHT22;54700;51.796;10.956;2023-10-19T07:22:48;6.50;99.90
67901;DHT22;54700;51.796;10.956;2023-10-19T07:25:15;6.50;99.90
67901;DHT22;54700;51.796;10.956;2023-10-19T07:27:46;6.50;99.90
67901;DHT22;54700;51.796;10.956;2023-10-19T07:30:15;6.60;99.90
67901;DHT22;54700;51.796;10.956;2023-10-19T07:32:47;6.60;99.90
67901;DHT22;54700;51.796;10.956;2023-10-19T07:35:20;6.60;99.90
67901;DHT22;54700;51.796;10.956;2023-10-19T07:37:48;6.60;99.90
67901;DHT22;54700;51.796;10.956;2023-10-19T07:40:16;6.70;99.90
67901;DHT22;54700;51.796;10.956;2023-10-19T07:42:43;6.70;99.90
67901;DHT22;54700;51.796;10.956;2023-10-19T07:45:14;6.70;99.90
67901;DHT22;54700;51.796;10.956;2023-10-19T07:47:41;6.70;99.90
67901;DHT22;54700;51.796;10.956;2023-10-19T07:50:10;6.70;99.90
67901;DHT22;54700;51.796;10.956;2023-10-19T07:52:41;6.70;99.90
67901;DHT22;54700;51.796;10.956;2023-10-19T07:55:10;6.70;99.90
67901;DHT22;54700;51.796;10.956;2023-10-19T07:57:37;6.80;99.90
67901;DHT22;54700;51.796;10.956;2023-10-19T08:00:07;6.80;99.90
67901;DHT22;54700;51.796;10.956;2023-10-19T08:02:39;6.80;99.90
67901;DHT22;54700;51.796;10.956;2023-10-19T08:05:07;6.90;99.90
67901;DHT22;54700;51.796;10.956;2023-10-19T08:07:36;6.90;99.90
67901;DHT22;54700;51.796;10.956;2023-10-19T08:10:05;6.90;99.90
67901;DHT22;54700;51.796;10.956;2023-10-19T08:12:36;7.00;99.90
67901;DHT22;54700;51.796;10.956;2023-10-19T08:15:03;7.00;99.90
67901;DHT22;54700;51.796;10.956;2023-10-19T08:17:36;7.00;99.90
67901;DHT22;54700;51.796;10.956;2023-10-19T08:20:05;7.00;99.90
67901;DHT22;54700;51.796;10.956;2023-10-19T08:22:34;7.10;99.90
67901;DHT22;54700;51.796;10.956;2023-10-19T08:25:02;7.10;99.90
67901;DHT22;54700;51.796;10.956;2023-10-19T08:27:30;7.10;99.90
67901;DHT22;54700;51.796;10.956;2023-10-19T08:30:00;7.10;99.90
67901;DHT22;54700;51.796;10.956;2023-10-19T08:32:29;7.20;99.90
67901;DHT22;54700;51.796;10.956;2023-10-19T08:34:58;7.20;99.90
67901;DHT22;54700;51.796;10.956;2023-10-19T08:37:26;7.20;99.90
67901;DHT22;54700;51.796;10.956;2023-10-19T08:39:53;7.20;99.90
67901;DHT22;54700;51.796;10.956;2023-10-19T08:42:20;7.30;99.90
67901;DHT22;54700;51.796;10.956;2023-10-19T08:44:47;7.30;99.90
67901;DHT22;54700;51.796;10.956;2023-10-19T08:47:15;7.30;99.90
67901;DHT22;54700;51.796;10.956;2023-10-19T08:49:42;7.30;99.90
67901;DHT22;54700;51.796;10.956;2023-10-19T08:52:09;7.30;99.90
67901;DHT22;54700;51.796;10.956;2023-10-19T08:54:38;7.40;99.90
67901;DHT22;54700;51.796;10.956;2023-10-19T08:57:05;7.40;99.90
67901;DHT22;54700;51.796;10.956;2023-10-19T08:59:34;7.50;99.90
67901;DHT22;54700;51.796;10.956;2023-10-19T09:02:03;7.50;99.90
67901;DHT22;54700;51.796;10.956;2023-10-19T09:04:34;7.60;99.90
67901;DHT22;54700;51.796;10.956;2023-10-19T09:07:08;7.60;99.90
67901;DHT22;54700;51.796;10.956;2023-10-19T09:09:36;7.70;99.90
67901;DHT22;54700;51.796;10.956;2023-10-19T09:12:06;7.70;99.90
67901;DHT22;54700;51.796;10.956;2023-10-19T09:14:33;7.80;99.90
67901;DHT22;54700;51.796;10.956;2023-10-19T09:17:05;7.90;99.90
67901;DHT22;54700;51.796;10.956;2023-10-19T09:19:40;7.90;99.90
67901;DHT22;54700;51.796;10.956;2023-10-19T09:22:09;7.90;99.90
67901;DHT22;54700;51.796;10.956;2023-10-19T09:24:44;8.00;99.90
67901;DHT22;54700;51.796;10.956;2023-10-19T09:27:11;8.00;99.90
67901;DHT22;54700;51.796;10.956;2023-10-19T09:29:39;8.10;99.90
67901;DHT22;54700;51.796;10.956;2023-10-19T09:32:07;8.10;99.90
67901;DHT22;54700;51.796;10.956;2023-10-19T09:34:35;8.00;99.90
67901;DHT22;54700;51.796;10.956;2023-10-19T09:37:05;8.10;99.90
67901;DHT22;54700;51.796;10.956;2023-10-19T09:39:33;8.10;99.90
67901;DHT22;54700;51.796;10.956;2023-10-19T09:42:01;8.10;99.90
67901;DHT22;54700;51.796;10.956;2023-10-19T09:44:38;8.20;99.90
67901;DHT22;54700;51.796;10.956;2023-10-19T09:47:09;8.20;99.90
67901;DHT22;54700;51.796;10.956;2023-10-19T09:49:40;8.40;99.90
67901;DHT22;54700;51.796;10.956;2023-10-19T09:52:10;8.50;99.90
67901;DHT22;54700;51.796;10.956;2023-10-19T09:54:42;8.60;99.90
67901;DHT22;54700;51.796;10.956;2023-10-19T09:57:34;8.70;99.90
67901;DHT22;54700;51.796;10.956;2023-10-19T10:00:04;8.90;99.90
67901;DHT22;54700;51.796;10.956;2023-10-19T10:02:38;9.00;99.90
67901;DHT22;54700;51.796;10.956;2023-10-19T10:08:31;9.00;99.90
67901;DHT22;54700;51.796;10.956;2023-10-19T10:11:01;9.10;99.90
67901;DHT22;54700;51.796;10.956;2023-10-19T10:13:42;9.20;99.90
67901;DHT22;54700;51.796;10.956;2023-10-19T10:16:12;9.30;99.90
67901;DHT22;54700;51.796;10.956;2023-10-19T10:18:40;9.30;99.90
67901;DHT22;54700;51.796;10.956;2023-10-19T10:21:10;9.40;99.90
67901;DHT22;54700;51.796;10.956;2023-10-19T10:23:43;9.40;99.90
67901;DHT22;54700;51.796;10.956;2023-10-19T10:26:14;9.50;99.90
67901;DHT22;54700;51.796;10.956;2023-10-19T10:28:46;9.60;99.90
67901;DHT22;54700;51.796;10.956;2023-10-19T10:31:15;9.60;99.90
67901;DHT22;54700;51.796;10.956;2023-10-19T10:33:48;9.70;99.90
67901;DHT22;54700;51.796;10.956;2023-10-19T10:36:17;9.70;99.90
67901;DHT22;54700;51.796;10.956;2023-10-19T10:38:50;9.70;99.90
67901;DHT22;54700;51.796;10.956;2023-10-19T10:41:20;9.80;99.90
67901;DHT22;54700;51.796;10.956;2023-10-19T10:43:51;9.80;99.90
67901;DHT22;54700;51.796;10.956;2023-10-19T10:46:19;9.90;99.90
67901;DHT22;54700;51.796;10.956;2023-10-19T10:48:47;10.00;99.90
67901;DHT22;54700;51.796;10.956;2023-10-19T10:51:18;9.90;99.90
67901;DHT22;54700;51.796;10.956;2023-10-19T10:53:51;10.00;99.90
67901;DHT22;54700;51.796;10.956;2023-10-19T10:56:20;9.90;99.90
67901;DHT22;54700;51.796;10.956;2023-10-19T10:58:47;9.90;99.90
67901;DHT22;54700;51.796;10.956;2023-10-19T11:01:15;9.90;99.90
67901;DHT22;54700;51.796;10.956;2023-10-19T11:04:05;9.90;99.90
67901;DHT22;54700;51.796;10.956;2023-10-19T11:06:32;9.90;99.90
67901;DHT22;54700;51.796;10.956;2023-10-19T11:09:08;9.90;99.90
67901;DHT22;54700;51.796;10.956;2023-10-19T11:11:37;9.90;99.90
67901;DHT22;54700;51.796;10.956;2023-10-19T11:14:09;9.90;99.90
67901;DHT22;54700;51.796;10.956;2023-10-19T11:16:37;10.00;99.90
67901;DHT22;54700;51.796;10.956;2023-10-19T11:19:04;10.00;99.90
67901;DHT22;54700;51.796;10.956;2023-10-19T11:21:32;10.00;99.90
67901;DHT22;54700;51.796;10.956;2023-10-19T11:24:00;10.00;99.90
67901;DHT22;54700;51.796;10.956;2023-10-19T11:26:30;10.00;99.90
67901;DHT22;54700;51.796;10.956;2023-10-19T11:28:57;10.10;99.90
67901;DHT22;54700;51.796;10.956;2023-10-19T11:31:26;10.20;99.90
67901;DHT22;54700;51.796;10.956;2023-10-19T11:33:56;10.20;99.90
67901;DHT22;54700;51.796;10.956;2023-10-19T11:36:23;10.30;99.90
67901;DHT22;54700;51.796;10.956;2023-10-19T11:38:51;10.30;99.90
67901;DHT22;54700;51.796;10.956;2023-10-19T11:41:21;10.30;99.90
67901;DHT22;54700;51.796;10.956;2023-10-19T11:43:48;10.40;99.90
67901;DHT22;54700;51.796;10.956;2023-10-19T11:46:15;10.40;99.90
67901;DHT22;54700;51.796;10.956;2023-10-19T11:48:43;10.30;99.90
67901;DHT22;54700;51.796;10.956;2023-10-19T11:51:10;10.30;99.90
67901;DHT22;54700;51.796;10.956;2023-10-19T11:53:40;10.30;99.90
67901;DHT22;54700;51.796;10.956;2023-10-19T11:56:09;10.30;99.90
67901;DHT22;54700;51.796;10.956;2023-10-19T11:58:39;10.30;99.90
67901;DHT22;54700;51.796;10.956;2023-10-19T12:01:12;10.30;99.90
67901;DHT22;54700;51.796;10.956;2023-10-19T12:03:42;10.40;99.90
67901;DHT22;54700;51.796;10.956;2023-10-19T12:06:11;10.40;99.90
67901;DHT22;54700;51.796;10.956;2023-10-19T12:08:44;10.50;99.90
67901;DHT22;54700;51.796;10.956;2023-10-19T12:11:11;10.60;99.90
67901;DHT22;54700;51.796;10.956;2023-10-19T12:13:43;10.60;99.90
67901;DHT22;54700;51.796;10.956;2023-10-19T12:16:11;10.70;99.90
67901;DHT22;54700;51.796;10.956;2023-10-19T12:18:40;10.70;99.90
67901;DHT22;54700;51.796;10.956;2023-10-19T12:21:08;10.60;99.90
67901;DHT22;54700;51.796;10.956;2023-10-19T12:23:39;10.60;99.90
67901;DHT22;54700;51.796;10.956;2023-10-19T12:26:06;10.60;99.90
67901;DHT22;54700;51.796;10.956;2023-10-19T12:28:36;10.60;99.90
67901;DHT22;54700;51.796;10.956;2023-10-19T12:31:08;10.50;99.90
67901;DHT22;54700;51.796;10.956;2023-10-19T12:33:36;10.60;99.90
67901;DHT22;54700;51.796;10.956;2023-10-19T12:36:04;10.50;99.90
67901;DHT22;54700;51.796;10.956;2023-10-19T12:38:48;10.60;99.90
67901;DHT22;54700;51.796;10.956;2023-10-19T12:41:16;10.60;99.90
67901;DHT22;54700;51.796;10.956;2023-10-19T12:43:43;10.70;99.90
67901;DHT22;54700;51.796;10.956;2023-10-19T12:46:13;10.70;99.90
67901;DHT22;54700;51.796;10.956;2023-10-19T12:48:41;10.70;99.90
67901;DHT22;54700;51.796;10.956;2023-10-19T12:51:08;10.70;99.90
67901;DHT22;54700;51.796;10.956;2023-10-19T12:53:36;10.60;99.90
67901;DHT22;54700;51.796;10.956;2023-10-19T12:56:05;10.60;99.90
67901;DHT22;54700;51.796;10.956;2023-10-19T12:58:33;10.50;99.90
67901;DHT22;54700;51.796;10.956;2023-10-19T13:01:00;10.40;99.90
67901;DHT22;54700;51.796;10.956;2023-10-19T13:03:31;10.40;99.90
67901;DHT22;54700;51.796;10.956;2023-10-19T13:05:58;10.40;99.90
67901;DHT22;54700;51.796;10.956;2023-10-19T13:08:29;10.40;99.90
67901;DHT22;54700;51.796;10.956;2023-10-19T13:10:56;10.40;99.90
67901;DHT22;54700;51.796;10.956;2023-10-19T13:13:23;10.40;99.90
67901;DHT22;54700;51.796;10.956;2023-10-19T13:15:52;10.40;99.90
67901;DHT22;54700;51.796;10.956;2023-10-19T13:18:19;10.40;99.90
67901;DHT22;54700;51.796;10.956;2023-10-19T13:20:48;10.40;99.90
67901;DHT22;54700;51.796;10.956;2023-10-19T13:23:15;10.50;99.90
67901;DHT22;54700;51.796;10.956;2023-10-19T13:25:42;10.50;99.90
67901;DHT22;54700;51.796;10.956;2023-10-19T13:28:15;10.50;99.90
67901;DHT22;54700;51.796;10.956;2023-10-19T13:30:45;10.60;99.90
67901;DHT22;54700;51.796;10.956;2023-10-19T13:33:15;10.60;99.90
67901;DHT22;54700;51.796;10.956;2023-10-19T13:35:43;10.60;99.90
67901;DHT22;54700;51.796;10.956;2023-10-19T13:38:12;10.60;99.90
67901;DHT22;54700;51.796;10.956;2023-10-19T13:40:40;10.60;99.90
67901;DHT22;54700;51.796;10.956;2023-10-19T13:43:08;10.60;99.90
67901;DHT22;54700;51.796;10.956;2023-10-19T13:45:40;10.60;99.90
67901;DHT22;54700;51.796;10.956;2023-10-19T13:48:08;10.60;99.90
67901;DHT22;54700;51.796;10.956;2023-10-19T13:50:40;10.60;99.90
67901;DHT22;54700;51.796;10.956;2023-10-19T13:53:09;10.60;99.90
67901;DHT22;54700;51.796;10.956;2023-10-19T13:55:37;10.70;99.90
67901;DHT22;54700;51.796;10.956;2023-10-19T13:58:04;10.70;99.90
67901;DHT22;54700;51.796;10.956;2023-10-19T14:00:33;10.70;99.90
67901;DHT22;54700;51.796;10.956;2023-10-19T14:03:06;10.60;99.90
67901;DHT22;54700;51.796;10.956;2023-10-19T14:05:37;10.50;99.90
67901;DHT22;54700;51.796;10.956;2023-10-19T14:08:05;10.60;99.90
67901;DHT22;54700;51.796;10.956;2023-10-19T14:10:33;10.50;99.90
67901;DHT22;54700;51.796;10.956;2023-10-19T14:13:02;10.50;99.90
67901;DHT22;54700;51.796;10.956;2023-10-19T14:15:30;10.50;99.90
67901;DHT22;54700;51.796;10.956;2023-10-19T14:17:59;10.50;99.90
67901;DHT22;54700;51.796;10.956;2023-10-19T14:20:28;10.40;99.90
67901;DHT22;54700;51.796;10.956;2023-10-19T14:22:59;10.40;99.90
67901;DHT22;54700;51.796;10.956;2023-10-19T14:25:27;10.40;99.90
67901;DHT22;54700;51.796;10.956;2023-10-19T14:27:55;10.30;99.90
67901;DHT22;54700;51.796;10.956;2023-10-19T14:30:26;10.30;99.90
67901;DHT22;54700;51.796;10.956;2023-10-19T14:32:55;10.40;99.90
67901;DHT22;54700;51.796;10.956;2023-10-19T14:35:23;10.30;99.90
67901;DHT22;54700;51.796;10.956;2023-10-19T14:37:53;10.30;99.90
67901;DHT22;54700;51.796;10.956;2023-10-19T14:40:22;10.30;99.90
67901;DHT22;54700;51.796;10.956;2023-10-19T14:42:52;10.40;99.90
67901;DHT22;54700;51.796;10.956;2023-10-19T14:45:20;10.30;99.90
67901;DHT22;54700;51.796;10.956;2023-10-19T14:47:52;10.30;99.90
67901;DHT22;54700;51.796;10.956;2023-10-19T14:50:21;10.30;99.90
67901;DHT22;54700;51.796;10.956;2023-10-19T14:52:49;10.20;99.90
67901;DHT22;54700;51.796;10.956;2023-10-19T14:55:18;10.20;99.90
67901;DHT22;54700;51.796;10.956;2023-10-19T14:57:46;10.20;99.90
67901;DHT22;54700;51.796;10.956;2023-10-19T15:00:16;10.20;99.90
67901;DHT22;54700;51.796;10.956;2023-10-19T15:02:50;10.20;99.90
67901;DHT22;54700;51.796;10.956;2023-10-19T15:05:21;10.20;99.90
67901;DHT22;54700;51.796;10.956;2023-10-19T15:07:50;10.10;99.90
67901;DHT22;54700;51.796;10.956;2023-10-19T15:10:19;10.10;99.90
67901;DHT22;54700;51.796;10.956;2023-10-19T15:12:53;10.10;99.90
67901;DHT22;54700;51.796;10.956;2023-10-19T15:15:21;10.20;99.90
67901;DHT22;54700;51.796;10.956;2023-10-19T15:17:48;10.10;99.90
67901;DHT22;54700;51.796;10.956;2023-10-19T15:20:18;10.10;99.90
67901;DHT22;54700;51.796;10.956;2023-10-19T15:22:48;10.20;99.90
67901;DHT22;54700;51.796;10.956;2023-10-19T15:25:20;10.20;99.90
67901;DHT22;54700;51.796;10.956;2023-10-19T15:27:50;10.20;99.90
67901;DHT22;54700;51.796;10.956;2023-10-19T15:30:18;10.20;99.90
67901;DHT22;54700;51.796;10.956;2023-10-19T15:32:46;10.20;99.90
67901;DHT22;54700;51.796;10.956;2023-10-19T15:35:15;10.20;99.90
67901;DHT22;54700;51.796;10.956;2023-10-19T15:37:46;10.20;99.90
67901;DHT22;54700;51.796;10.956;2023-10-19T15:40:15;10.20;99.90
67901;DHT22;54700;51.796;10.956;2023-10-19T15:42:44;10.20;99.90
67901;DHT22;54700;51.796;10.956;2023-10-19T15:45:12;10.20;99.90
67901;DHT22;54700;51.796;10.956;2023-10-19T15:47:43;10.10;99.90